createdAt,value
2022-09-19T00:01:12.775Z,80722.34
2022-09-19T00:03:41.652Z,79047.06
2022-09-19T00:06:10.754Z,79036.38
2022-09-19T00:08:38.921Z,77688.03
2022-09-19T00:11:08.479Z,78331.41
2022-09-19T00:13:37.406Z,78300.28
2022-09-19T00:16:05.826Z,76281.19
2022-09-19T00:18:34.566Z,74285.16
2022-09-19T00:21:02.053Z,74617.06
2022-09-19T00:23:47.153Z,75276.25
2022-09-19T00:26:19.708Z,75944.28
2022-09-19T00:28:47.996Z,74921.03
2022-09-19T00:31:18.591Z,74239.34
2022-09-19T00:33:48.919Z,71885.75
2022-09-19T00:36:17.428Z,72547.97
2022-09-19T00:38:46.111Z,71219.78
2022-09-19T00:41:16.324Z,71899.75
2022-09-19T00:43:47.343Z,72566.41
2022-09-19T00:46:14.738Z,72245.59
2022-09-19T00:48:43.891Z,73258.97
2022-09-19T00:51:15.119Z,73903.25
2022-09-19T00:53:43.644Z,72565.16
2022-09-19T00:56:12.110Z,71897.31
2022-09-19T00:58:44.615Z,73885.75
2022-09-19T01:01:12.328Z,72200.41
2022-09-19T01:03:39.770Z,71513.44
2022-09-19T01:06:21.958Z,70845.41
2022-09-19T01:09:13.802Z,69833.28
2022-09-19T01:11:58.364Z,68810.88
2022-09-19T01:14:40.709Z,68126.88
2022-09-19T01:17:13.783Z,66452.53
2022-09-19T01:20:14.350Z,66112.50
2022-09-19T01:22:56.316Z,65435.97
2022-09-19T01:25:32.244Z,65424.88
2022-09-19T01:28:12.241Z,64416.00
2022-09-19T01:30:49.052Z,63085.91
2022-09-19T01:33:19.966Z,62083.00
2022-09-19T01:35:52.855Z,62738.31
2022-09-19T01:38:25.356Z,62399.31
2022-09-19T01:40:54.084Z,61388.38
2022-09-19T01:43:22.742Z,59725.69
2022-09-19T01:45:53.755Z,59710.50
2022-09-19T01:48:26.635Z,59039.25
2022-09-19T01:51:18.889Z,58035.47
2022-09-19T01:54:01.591Z,58027.06
2022-09-19T01:56:41.058Z,56681.72
2022-09-19T01:59:23.001Z,55679.28
2022-09-19T02:01:57.118Z,55347.16
2022-09-19T02:04:27.419Z,54672.16
2022-09-19T02:07:02.756Z,53668.00
2022-09-19T02:09:41.220Z,54322.50
2022-09-19T02:12:11.717Z,52986.59
2022-09-19T02:14:43.448Z,51982.34
2022-09-19T02:17:15.145Z,51308.09
2022-09-19T02:19:45.834Z,50971.22
2022-09-19T02:22:19.736Z,50637.47
2022-09-19T02:24:49.401Z,50304.94
2022-09-19T02:27:22.259Z,50633.16
2022-09-19T02:29:55.801Z,49967.31
2022-09-19T02:32:24.343Z,49633.97
2022-09-19T02:34:54.663Z,49964.78
2022-09-19T02:37:31.570Z,48632.66
2022-09-19T02:40:05.027Z,49308.19
2022-09-19T02:42:44.941Z,49647.06
2022-09-19T02:45:18.907Z,49650.06
2022-09-19T02:47:55.063Z,50325.94
2022-09-19T02:50:27.526Z,51320.75
2022-09-19T02:52:58.974Z,51656.38
2022-09-19T02:55:30.575Z,52663.47
2022-09-19T02:58:01.671Z,53333.16
2022-09-19T03:00:32.446Z,52679.59
2022-09-19T03:03:24.869Z,54018.00
2022-09-19T03:05:54.729Z,55363.63
2022-09-19T03:08:25.145Z,55377.25
2022-09-19T03:10:57.240Z,55718.53
2022-09-19T03:13:25.398Z,56065.13
2022-09-19T03:16:03.080Z,56396.09
2022-09-19T03:18:33.154Z,57738.59
2022-09-19T03:21:03.641Z,57411.59
2022-09-19T03:23:36.475Z,57750.84
2022-09-19T03:26:04.214Z,57739.56
2022-09-19T03:28:31.535Z,58404.72
2022-09-19T03:31:00.290Z,57730.25
2022-09-19T03:33:28.318Z,59069.81
2022-09-19T03:35:57.330Z,59069.31
2022-09-19T03:38:25.308Z,58741.03
2022-09-19T03:40:52.662Z,59078.81
2022-09-19T03:43:20.170Z,61079.59
2022-09-19T03:45:47.682Z,59418.19
2022-09-19T03:48:16.942Z,60075.69
2022-09-19T03:50:44.281Z,60413.06
2022-09-19T03:53:12.227Z,60080.78
2022-09-19T03:55:41.227Z,59752.56
2022-09-19T03:58:08.681Z,59409.13
2022-09-19T04:00:36.071Z,59420.72
2022-09-19T04:03:03.424Z,59071.31
2022-09-19T04:05:33.502Z,58065.00
2022-09-19T04:08:02.026Z,57384.78
2022-09-19T04:10:29.367Z,56051.34
2022-09-19T04:12:57.255Z,55390.44
2022-09-19T04:15:25.671Z,56380.78
2022-09-19T04:17:53.075Z,56372.16
2022-09-19T04:20:20.506Z,55359.88
2022-09-19T04:22:49.620Z,54356.22
2022-09-19T04:25:17.206Z,53689.91
2022-09-19T04:27:46.289Z,53360.81
2022-09-19T04:30:16.241Z,53355.81
2022-09-19T04:32:44.372Z,54034.09
2022-09-19T04:35:12.147Z,53370.34
2022-09-19T04:37:39.478Z,54033.19
2022-09-19T04:40:09.314Z,53699.50
2022-09-19T04:42:37.126Z,54373.34
2022-09-19T04:45:05.006Z,54707.03
2022-09-19T04:47:34.103Z,54707.50
2022-09-19T04:50:04.638Z,55380.53
2022-09-19T04:52:32.457Z,55713.34
2022-09-19T04:54:59.815Z,55044.00
2022-09-19T04:57:28.627Z,55704.81
2022-09-19T04:59:56.963Z,56041.81
2022-09-19T05:02:24.327Z,55378.19
2022-09-19T05:04:52.619Z,56037.53
2022-09-19T05:07:20.345Z,55376.78
2022-09-19T05:09:47.670Z,55380.06
2022-09-19T05:12:15.067Z,56381.72
2022-09-19T05:14:43.711Z,57393.06
2022-09-19T05:17:11.077Z,57724.38
2022-09-19T05:19:38.410Z,56719.75
2022-09-19T05:22:06.029Z,56052.78
2022-09-19T05:24:33.399Z,56053.72
2022-09-19T05:27:03.155Z,55050.09
2022-09-19T05:29:30.500Z,57067.56
2022-09-19T05:32:02.113Z,56744.81
2022-09-19T05:34:29.627Z,57759.19
2022-09-19T05:36:57.141Z,58439.44
2022-09-19T05:39:24.531Z,59454.50
2022-09-19T05:41:51.915Z,60121.06
2022-09-19T05:44:19.283Z,60464.31
2022-09-19T05:46:46.662Z,60814.88
2022-09-19T05:49:15.339Z,60140.44
2022-09-19T05:51:42.710Z,60473.56
2022-09-19T05:54:09.255Z,60800.97
2022-09-19T05:56:36.578Z,60133.31
2022-09-19T05:59:04.110Z,59131.47
2022-09-19T06:01:31.730Z,58129.59
2022-09-19T06:04:00.929Z,59802.75
2022-09-19T06:06:29.752Z,59145.53
2022-09-19T06:09:00.031Z,59476.69
2022-09-19T06:11:28.116Z,59487.28
2022-09-19T06:14:13.030Z,59157.56
2022-09-19T06:16:42.579Z,59833.69
2022-09-19T06:19:10.549Z,61187.41
2022-09-19T06:21:39.226Z,62526.91
2022-09-19T06:24:08.407Z,62199.94
2022-09-19T06:26:35.918Z,62546.53
2022-09-19T06:29:04.415Z,64576.06
2022-09-19T06:31:32.221Z,63567.59
2022-09-19T06:33:59.649Z,63903.19
2022-09-19T06:36:27.550Z,63232.53
2022-09-19T06:38:56.222Z,62215.75
2022-09-19T06:41:23.569Z,60860.25
2022-09-19T06:43:51.135Z,60498.16
2022-09-19T06:46:19.205Z,58820.81
2022-09-19T06:48:49.488Z,57810.69
2022-09-19T06:51:16.854Z,56136.13
2022-09-19T06:53:48.234Z,56120.88
2022-09-19T06:56:16.894Z,54447.78
2022-09-19T06:58:44.255Z,54120.50
2022-09-19T07:01:12.448Z,54116.81
2022-09-19T07:03:42.405Z,53792.22
2022-09-19T07:06:09.759Z,54128.78
2022-09-19T07:08:38.587Z,54784.25
2022-09-19T07:11:07.061Z,53451.16
2022-09-19T07:13:35.735Z,53114.69
2022-09-19T07:16:03.665Z,52448.97
2022-09-19T07:18:31.185Z,52791.25
2022-09-19T07:21:00.933Z,54130.63
2022-09-19T07:23:28.364Z,54131.53
2022-09-19T07:25:57.191Z,55807.09
2022-09-19T07:28:25.213Z,54125.09
2022-09-19T07:30:54.973Z,54128.31
2022-09-19T07:33:23.166Z,55128.25
2022-09-19T07:35:52.435Z,55124.50
2022-09-19T07:38:21.752Z,53794.53
2022-09-19T07:40:49.455Z,54788.91
2022-09-19T07:43:18.395Z,55799.53
2022-09-19T07:45:47.782Z,55464.81
2022-09-19T07:48:18.016Z,54468.13
2022-09-19T07:50:51.004Z,54813.09
2022-09-19T07:53:22.749Z,56153.75
2022-09-19T07:55:52.942Z,56165.19
2022-09-19T07:58:21.975Z,55839.31
2022-09-19T08:00:51.095Z,57194.09
2022-09-19T08:03:21.315Z,58210.53
2022-09-19T08:05:50.796Z,57559.88
2022-09-19T08:08:19.520Z,58918.63
2022-09-19T08:10:47.993Z,61283.34
2022-09-19T08:13:17.519Z,63979.53
2022-09-19T08:15:46.002Z,65311.41
2022-09-19T08:18:15.733Z,65984.47
2022-09-19T08:20:45.095Z,64979.84
2022-09-19T08:23:14.279Z,64644.97
2022-09-19T08:25:47.150Z,63965.44
2022-09-19T08:28:14.811Z,64983.16
2022-09-19T08:30:44.440Z,65340.16
2022-09-19T08:33:13.506Z,65673.50
2022-09-19T08:35:42.505Z,66669.97
2022-09-19T08:38:12.871Z,68022.88
2022-09-19T08:40:54.477Z,67005.47
2022-09-19T08:43:33.600Z,66340.06
2022-09-19T08:46:15.432Z,68044.16
2022-09-19T08:48:57.266Z,69395.56
2022-09-19T08:51:30.224Z,69724.75
2022-09-19T08:54:02.417Z,68057.38
2022-09-19T08:56:31.367Z,69401.41
2022-09-19T08:59:03.399Z,67045.13
2022-09-19T09:01:36.255Z,68408.13
2022-09-19T09:04:16.166Z,68087.91
2022-09-19T09:06:54.787Z,70130.34
2022-09-19T09:09:30.095Z,72163.94
2022-09-19T09:12:05.643Z,74213.59
2022-09-19T09:15:08.888Z,77605.25
2022-09-19T09:17:47.671Z,73890.47
2022-09-19T09:20:30.006Z,75921.59
2022-09-19T09:23:08.433Z,77952.78
2022-09-19T09:25:41.473Z,78298.41
2022-09-19T09:28:15.419Z,78626.91
2022-09-19T09:30:48.205Z,74876.53
2022-09-19T09:33:22.186Z,71822.44
2022-09-19T09:35:53.438Z,69436.03
2022-09-19T09:38:31.371Z,66388.34
2022-09-19T09:41:27.227Z,65680.69
2022-09-19T09:44:04.757Z,62643.50
2022-09-19T09:46:44.446Z,61956.25
2022-09-19T09:49:13.687Z,59922.50
2022-09-19T09:51:51.541Z,58582.34
2022-09-19T09:54:51.392Z,58242.09
2022-09-19T09:57:33.451Z,57230.97
2022-09-19T10:00:21.267Z,56892.38
2022-09-19T10:03:17.659Z,55893.38
2022-09-19T10:05:48.752Z,55902.88
2022-09-19T10:08:22.056Z,58264.84
2022-09-19T10:10:54.283Z,58268.78
2022-09-19T10:13:27.351Z,58288.53
2022-09-19T10:15:57.110Z,60673.19
2022-09-19T10:18:30.276Z,64732.53
2022-09-19T10:20:58.199Z,66443.38
2022-09-19T10:23:27.286Z,69146.28
2022-09-19T10:26:01.975Z,71860.63
2022-09-19T10:28:34.382Z,73227.19
2022-09-19T10:31:05.703Z,71538.28
2022-09-19T10:33:41.047Z,73232.72
2022-09-19T10:36:17.421Z,74941.03
2022-09-19T10:38:55.029Z,76987.75
2022-09-19T10:41:24.353Z,78034.31
2022-09-19T10:43:55.601Z,77338.66
2022-09-19T10:46:26.347Z,78701.19
2022-09-19T10:48:57.883Z,80748.69
2022-09-19T10:51:30.180Z,81086.88
2022-09-19T10:53:58.865Z,79394.72
2022-09-19T10:56:29.254Z,83821.09
2022-09-19T10:59:04.407Z,85539.19
2022-09-19T11:01:32.077Z,87910.84
2022-09-19T11:04:02.123Z,88286.66
2022-09-19T11:06:30.123Z,90331.03
2022-09-19T11:08:58.767Z,88612.03
2022-09-19T11:11:38.633Z,86938.16
2022-09-19T11:14:18.109Z,93446.88
2022-09-19T11:17:05.355Z,98624.59
2022-09-19T11:19:50.255Z,106184.69
2022-09-19T11:22:32.349Z,117920.75
2022-09-19T11:25:08.761Z,122470.59
2022-09-19T11:27:55.667Z,126297.97
2022-09-19T11:30:27.091Z,139131.69
2022-09-19T11:36:23.926Z,142565.97
2022-09-19T11:41:57.776Z,152379.41
2022-09-19T11:44:48.114Z,153448.72
2022-09-19T11:47:34.184Z,153443.53
2022-09-19T11:50:22.130Z,153515.88
2022-09-19T11:53:05.955Z,153513.28
2022-09-19T11:55:40.665Z,153580.47
2022-09-19T11:58:19.739Z,153570.16
2022-09-19T12:01:16.745Z,153533.91
2022-09-19T12:04:07.271Z,153522.28
2022-09-19T12:06:50.498Z,153564.91
2022-09-19T12:09:28.110Z,153559.78
2022-09-19T12:12:00.028Z,153564.91
2022-09-19T12:14:30.129Z,153593.38
2022-09-19T12:17:02.535Z,153576.59
2022-09-19T12:19:37.475Z,153612.78
2022-09-19T12:22:13.435Z,153616.63
2022-09-19T12:24:53.538Z,153704.50
2022-09-19T12:27:28.108Z,153743.25
2022-09-19T12:30:03.926Z,153776.81
2022-09-19T12:32:39.348Z,153788.50
2022-09-19T12:35:21.128Z,153800.13
2022-09-19T12:37:58.628Z,153854.41
2022-09-19T12:40:32.351Z,153793.63
2022-09-19T12:43:13.598Z,153850.50
2022-09-19T12:45:47.136Z,153938.50
2022-09-19T12:48:23.996Z,153864.78
2022-09-19T12:50:58.079Z,153841.47
2022-09-19T12:53:36.050Z,153775.56
2022-09-19T12:56:06.242Z,153802.72
2022-09-19T12:58:41.668Z,153829.84
2022-09-19T13:01:21.825Z,153721.31
2022-09-19T13:03:59.838Z,153639.91
2022-09-19T13:06:33.600Z,153608.91
2022-09-19T13:09:05.676Z,153597.28
2022-09-19T13:11:40.505Z,153549.41
2022-09-19T13:14:14.967Z,153490.03
2022-09-19T13:17:09.185Z,153490.03
2022-09-19T13:19:58.117Z,153588.19
2022-09-19T13:22:48.734Z,153740.66
2022-09-19T13:25:25.498Z,153872.53
2022-09-19T13:28:25.412Z,153932.00
2022-09-19T13:31:12.497Z,153978.56
2022-09-19T13:33:49.561Z,153937.19
2022-09-19T13:36:38.063Z,153948.84
2022-09-19T13:39:48.325Z,153955.25
2022-09-19T13:42:25.603Z,153975.97
2022-09-19T13:45:03.023Z,153875.13
2022-09-19T13:47:32.396Z,153893.22
2022-09-19T13:50:08.710Z,153925.53
2022-09-19T13:52:43.046Z,153913.88
2022-09-19T13:55:21.173Z,153973.38
2022-09-19T13:57:50.342Z,154045.81
2022-09-19T14:00:38.648Z,154079.41
2022-09-19T14:03:08.051Z,154097.53
2022-09-19T14:05:41.415Z,154115.63
2022-09-19T14:11:16.103Z,154032.88
2022-09-19T14:13:45.602Z,154071.69
2022-09-19T14:16:32.583Z,154185.53
2022-09-19T14:19:00.174Z,154242.47
2022-09-19T14:21:56.090Z,154236.03
2022-09-19T14:24:43.070Z,154154.53
2022-09-19T14:27:35.548Z,154113.06
2022-09-19T14:30:07.844Z,154075.53
2022-09-19T14:32:42.563Z,154074.22
2022-09-19T14:35:35.123Z,154100.16
2022-09-19T14:38:41.985Z,154097.53
2022-09-19T14:41:15.817Z,154019.91
2022-09-19T14:44:14.142Z,154009.59
2022-09-19T14:46:47.325Z,154048.38
2022-09-19T14:49:23.037Z,153957.88
2022-09-19T14:51:58.997Z,153869.97
2022-09-19T14:54:33.714Z,153846.63
2022-09-19T14:57:02.878Z,153828.56
2022-09-19T14:59:33.425Z,153801.41
2022-09-19T15:02:19.462Z,153758.78
2022-09-19T15:04:47.488Z,153743.25
2022-09-19T15:07:17.674Z,153756.16
2022-09-19T15:09:45.208Z,153717.41
2022-09-19T15:12:15.387Z,153751.00
2022-09-19T15:14:46.670Z,153771.69
2022-09-19T15:17:19.325Z,153823.38
2022-09-19T15:19:48.342Z,153823.38
2022-09-19T15:22:35.216Z,153862.16
2022-09-19T15:25:07.968Z,153900.97
2022-09-19T15:27:47.293Z,153952.66
2022-09-19T15:30:27.146Z,153957.88
2022-09-19T15:33:00.317Z,153929.41
2022-09-19T15:35:29.846Z,153879.00
2022-09-19T15:38:02.862Z,153849.22
2022-09-19T15:40:32.359Z,153844.09
2022-09-19T15:43:01.718Z,153769.09
2022-09-19T15:45:38.810Z,153765.19
2022-09-19T15:48:21.271Z,153716.13
2022-09-19T15:50:51.846Z,153725.16
2022-09-19T15:53:29.131Z,153425.50
2022-09-19T15:56:03.814Z,153252.50
2022-09-19T15:58:39.638Z,153234.44
2022-09-19T16:01:14.832Z,153153.16
2022-09-19T16:03:51.027Z,153101.56
2022-09-19T16:06:43.051Z,152981.63
2022-09-19T16:09:12.449Z,145009.09
2022-09-19T16:11:45.352Z,122544.84
2022-09-19T16:14:26.560Z,108064.22
2022-09-19T16:16:55.670Z,99149.56
2022-09-19T16:19:44.492Z,101202.84
2022-09-19T16:22:14.323Z,97795.34
2022-09-19T16:24:46.883Z,94383.56
2022-09-19T16:27:15.603Z,90666.13
2022-09-19T16:29:47.094Z,89265.50
2022-09-19T16:32:19.168Z,84812.06
2022-09-19T16:34:51.316Z,82420.34
2022-09-19T16:37:27.992Z,81753.00
2022-09-19T16:39:57.626Z,83447.53
2022-09-19T16:42:31.226Z,83811.22
2022-09-19T16:45:17.338Z,88952.28
2022-09-19T16:47:45.577Z,94436.81
2022-09-19T16:50:16.062Z,93052.81
2022-09-19T16:52:46.069Z,89945.19
2022-09-19T16:55:23.058Z,89277.53
2022-09-19T16:57:51.551Z,87884.19
2022-09-19T17:00:19.752Z,81747.47
2022-09-19T17:02:47.108Z,76652.44
2022-09-19T17:05:19.975Z,72905.63
2022-09-19T17:07:49.448Z,70862.72
2022-09-19T17:10:17.587Z,68822.97
2022-09-19T17:12:45.298Z,73966.53
2022-09-19T17:15:28.649Z,78721.09
2022-09-19T17:17:56.349Z,79378.63
2022-09-19T17:20:24.998Z,76299.75
2022-09-19T17:22:52.811Z,72914.81
2022-09-19T17:25:31.634Z,74266.22
2022-09-19T17:27:59.579Z,71202.00
2022-09-19T17:30:26.951Z,68472.91
2022-09-19T17:32:54.968Z,66088.34
2022-09-19T17:35:22.616Z,65423.66
2022-09-19T17:37:51.303Z,68477.53
2022-09-19T17:40:18.750Z,73892.34
2022-09-19T17:42:46.627Z,75563.56
2022-09-19T17:45:14.673Z,72855.19
2022-09-19T17:47:44.821Z,72154.22
2022-09-19T17:50:12.578Z,71132.28
2022-09-19T17:52:39.976Z,68422.59
2022-09-19T17:55:10.049Z,69070.34
2022-09-19T17:57:38.229Z,66034.16
2022-09-19T18:00:06.389Z,65021.09
2022-09-19T18:02:51.331Z,65024.41
2022-09-19T18:05:23.889Z,64686.56
2022-09-19T18:07:54.476Z,63339.69
2022-09-19T18:10:25.465Z,66358.03
2022-09-19T18:12:53.142Z,66020.75
2022-09-19T18:15:20.490Z,65686.81
2022-09-19T18:17:48.297Z,65353.41
2022-09-19T18:20:16.082Z,65010.09
2022-09-19T18:22:43.983Z,63666.66
2022-09-19T18:25:16.007Z,65001.81
2022-09-19T18:27:45.404Z,65339.59
2022-09-19T18:30:15.295Z,65000.19
2022-09-19T18:32:42.913Z,65662.38
2022-09-19T18:35:11.877Z,63650.50
2022-09-19T18:37:39.613Z,63970.31
2022-09-19T18:40:08.266Z,61940.53
2022-09-19T18:42:35.663Z,61255.34
2022-09-19T18:45:05.991Z,60254.72
2022-09-19T18:47:34.068Z,62617.53
2022-09-19T18:50:01.708Z,64310.63
2022-09-19T18:52:29.189Z,65000.75
2022-09-19T18:54:56.641Z,65334.63
2022-09-19T18:57:24.356Z,65664.59
2022-09-19T18:59:51.714Z,64655.34
2022-09-19T19:02:21.315Z,63980.03
2022-09-19T19:04:49.674Z,65309.75
2022-09-19T19:07:17.076Z,63295.75
2022-09-19T19:09:44.435Z,64617.63
2022-09-19T19:12:34.606Z,62601.63
2022-09-19T19:15:00.168Z,60910.31
2022-09-19T19:17:28.958Z,60556.13
2022-09-19T19:19:56.353Z,59866.66
2022-09-19T19:22:23.729Z,58511.88
2022-09-19T19:24:51.055Z,58167.09
2022-09-19T19:27:18.703Z,56814.22
2022-09-19T19:29:46.081Z,57794.00
2022-09-19T19:32:14.017Z,56439.22
2022-09-19T19:34:42.675Z,55417.75
2022-09-19T19:37:10.031Z,52737.44
2022-09-19T19:39:37.695Z,52058.91
2022-09-19T19:42:05.127Z,51051.16
2022-09-19T19:44:32.484Z,50703.47
2022-09-19T19:47:00.181Z,49699.56
2022-09-19T19:49:27.676Z,49693.63
2022-09-19T19:51:56.967Z,50021.84
2022-09-19T19:54:24.346Z,49023.63
2022-09-19T19:56:51.742Z,50349.53
2022-09-19T19:59:24.521Z,49351.06
2022-09-19T20:01:52.586Z,49019.03
2022-09-19T20:04:20.048Z,49016.53
2022-09-19T20:06:47.390Z,48024.47
2022-09-19T20:09:16.600Z,48359.88
2022-09-19T20:11:46.896Z,48035.09
2022-09-19T20:14:16.843Z,49391.84
2022-09-19T20:16:46.117Z,50735.84
2022-09-19T20:19:16.257Z,50744.47
2022-09-19T20:21:45.699Z,51429.59
2022-09-19T20:24:18.574Z,52763.00
2022-09-19T20:26:47.503Z,53099.34
2022-09-19T20:29:19.051Z,54119.13
2022-09-19T20:31:46.632Z,54477.38
2022-09-19T20:34:14.220Z,57157.22
2022-09-19T20:36:42.245Z,58834.78
2022-09-19T20:39:10.338Z,58842.25
2022-09-19T20:41:43.837Z,58853.75
2022-09-19T20:44:11.616Z,62886.81
2022-09-19T20:46:40.077Z,64232.84
2022-09-19T20:49:09.204Z,65939.81
2022-09-19T20:51:38.886Z,65952.66
2022-09-19T20:54:07.187Z,66610.78
2022-09-19T20:56:34.930Z,65949.31
2022-09-19T20:59:05.064Z,64938.63
2022-09-19T21:01:35.537Z,63927.56
2022-09-19T21:04:03.921Z,63585.88
2022-09-19T21:06:31.327Z,62912.38
2022-09-19T21:08:59.186Z,64248.59
2022-09-19T21:11:27.143Z,63912.41
2022-09-19T21:13:56.399Z,64262.75
2022-09-19T21:16:27.332Z,63924.28
2022-09-19T21:18:56.495Z,64268.19
2022-09-19T21:21:26.319Z,63257.69
2022-09-19T21:23:54.758Z,64270.34
2022-09-19T21:26:23.996Z,65626.84
2022-09-19T21:28:54.285Z,65624.59
2022-09-19T21:31:23.646Z,64630.75
2022-09-19T21:33:54.661Z,63952.97
2022-09-19T21:36:22.419Z,62942.75
2022-09-19T21:38:53.550Z,63258.22
2022-09-19T21:41:21.214Z,63257.69
2022-09-19T21:43:48.603Z,60562.28
2022-09-19T21:46:17.744Z,61242.91
2022-09-19T21:48:47.014Z,61581.22
2022-09-19T21:51:17.746Z,62600.56
2022-09-19T21:53:46.372Z,62948.06
2022-09-19T21:56:14.343Z,62603.19
2022-09-19T21:58:42.157Z,64605.59
2022-09-19T22:01:15.955Z,64280.16
2022-09-19T22:03:43.491Z,64944.13
2022-09-19T22:06:11.961Z,64626.38
2022-09-19T22:08:45.026Z,63626.81
2022-09-19T22:11:15.095Z,64291.56
2022-09-19T22:13:43.790Z,64951.81
2022-09-19T22:16:15.182Z,64949.06
2022-09-19T22:18:43.740Z,64962.81
2022-09-19T22:21:11.852Z,64301.91
2022-09-19T22:23:41.642Z,64622.56
2022-09-19T22:26:11.454Z,63278.59
2022-09-19T22:28:39.802Z,63598.81
2022-09-19T22:31:08.979Z,62587.31
2022-09-19T22:33:38.718Z,61913.25
2022-09-19T22:36:07.761Z,61911.66
2022-09-19T22:38:35.740Z,61584.31
2022-09-19T22:41:06.303Z,62591.03
2022-09-19T22:43:34.459Z,64955.66
2022-09-19T22:46:06.546Z,63609.03
2022-09-19T22:48:34.031Z,64275.78
2022-09-19T22:51:01.627Z,63285.03
2022-09-19T22:53:28.969Z,64961.69
2022-09-19T22:55:57.827Z,64300.28
2022-09-19T22:58:30.278Z,64306.28
2022-09-19T23:01:01.829Z,65319.69
2022-09-19T23:03:29.729Z,66669.41
2022-09-19T23:06:05.474Z,68374.00
2022-09-19T23:08:33.525Z,70077.00
2022-09-19T23:11:02.130Z,70761.63
2022-09-19T23:13:49.117Z,71764.19
2022-09-19T23:16:19.687Z,71416.34
2022-09-19T23:18:51.263Z,69727.13
2022-09-19T23:21:19.115Z,68025.75
2022-09-19T23:23:48.210Z,66000.09
2022-09-19T23:26:15.999Z,65654.03
2022-09-19T23:28:45.398Z,65316.94
2022-09-19T23:31:13.116Z,64992.50
2022-09-19T23:33:40.827Z,65313.63
2022-09-19T23:36:12.059Z,65660.16
2022-09-19T23:38:39.627Z,67015.66
2022-09-19T23:41:08.255Z,67687.91
2022-09-19T23:43:36.807Z,68702.69
2022-09-19T23:46:07.197Z,71078.22
2022-09-19T23:48:35.704Z,72101.19
2022-09-19T23:51:03.643Z,74123.41
2022-09-19T23:53:32.330Z,72772.75
2022-09-19T23:56:00.547Z,73113.47
2022-09-19T23:58:29.278Z,72080.47
